This is the latest recevied weather packets stored in our database for station/object OE3MHU-12. If no packets are shown the sender has not sent any weather packets the latest 1 day(s).
| Time | Temp. | Humidity | Pressure | Rain* | Wind** | Luminosity | Snow |
|---|---|---|---|---|---|---|---|
| 1778030733 | 12.78° C | 82% | 1005.9 hPa | 0 mm | 0 m/s | - | - |
| 1778028933 | 12.78° C | 81% | 1006 hPa | 0 mm | 0.89 m/s, 281° | - | - |
| 1778027134 | 13.33° C | 81% | 1005.8 hPa | 0 mm | 0.45 m/s, 279° | - | - |
| 1778025334 | 14.44° C | 78% | 1005.4 hPa | 0 mm | 1.34 m/s, 327° | - | - |
| 1778023534 | 15.56° C | 74% | 1005 hPa | 0 mm | 1.34 m/s, 274° | - | - |
| 1778021734 | 15.56° C | 70% | 1004.6 hPa | 0 mm | 1.34 m/s, 319° | - | - |
| 1778019934 | 16.11° C | 67% | 1004.7 hPa | 0 mm | 4.02 m/s, 294° | - | - |
| 1778018134 | 17.22° C | 63% | 1004 hPa | 0 mm | 2.68 m/s, 327° | - | - |
| 1778016334 | 17.78° C | 62% | 1003.9 hPa | 0 mm | 4.02 m/s, 277° | - | - |
| 1778014534 | 18.33° C | 59% | 1003.7 hPa | 0 mm | 4.02 m/s, 327° | - | - |
| 1778012734 | 18.89° C | 55% | 1003.3 hPa | 0 mm | 3.13 m/s, 326° | - | - |
| 1778010934 | 18.33° C | 57% | 1002.4 hPa | 0 mm | 0 m/s | - | - |
| 1778009134 | 19.44° C | 57% | 1001.9 hPa | 0 mm | 0 m/s | - | - |
| 1778007335 | 20° C | 54% | 1001.8 hPa | 0 mm | 0 m/s | - | - |
| 1778005535 | 21.11° C | 52% | 1001.5 hPa | 0 mm | 0 m/s | - | - |
| 1778003735 | 22.22° C | 49% | 1001.6 hPa | 0 mm | 0 m/s | - | - |
| 1778001935 | 23.33° C | 43% | 1001.7 hPa | 0 mm | 0 m/s | - | - |
| 1778000135 | 23.89° C | 38% | 1001.8 hPa | 0 mm | 0 m/s | - | - |
| 1777998336 | 25° C | 34% | 1002 hPa | 0 mm | 0.45 m/s, 194° | - | - |
| 1777996539 | 26.11° C | 31% | 1002.3 hPa | 0 mm | 0.89 m/s, 106° | - | - |
| 1777994735 | 26.67° C | 33% | 1002.6 hPa | 0 mm | 1.34 m/s, 125° | - | - |
| 1777991135 | 26.11° C | 33% | 1003.2 hPa | 0 mm | 1.79 m/s, 108° | - | - |
| 1777989337 | 25.56° C | 35% | 1003.6 hPa | 0 mm | 1.79 m/s, 102° | - | - |
| 1777987536 | 26.11° C | 39% | 1004 hPa | 0 mm | 1.79 m/s, 91° | - | - |
| 1777985736 | 23.33° C | 44% | 1004.4 hPa | 0 mm | 1.34 m/s, 37° | - | - |
* Rain latest hour (hover to see other rain measurements)
** Current wind speed in m/s (hover to see current wind gust speed)